sensor_id;sensor_type;location;lat;lon;timestamp;P1;durP1;ratioP1;P2;durP2;ratioP2
12814;SDS011;6472;52.328;13.070;2022-11-15T00:01:12;20.10;;;9.13;;
12814;SDS011;6472;52.328;13.070;2022-11-15T00:03:44;16.63;;;9.63;;
12814;SDS011;6472;52.328;13.070;2022-11-15T00:06:12;25.17;;;9.90;;
12814;SDS011;6472;52.328;13.070;2022-11-15T00:08:40;19.10;;;9.17;;
12814;SDS011;6472;52.328;13.070;2022-11-15T00:11:10;16.93;;;8.93;;
12814;SDS011;6472;52.328;13.070;2022-11-15T00:13:39;14.03;;;9.07;;
12814;SDS011;6472;52.328;13.070;2022-11-15T00:16:09;16.17;;;8.77;;
12814;SDS011;6472;52.328;13.070;2022-11-15T00:18:37;19.87;;;9.43;;
12814;SDS011;6472;52.328;13.070;2022-11-15T00:21:06;23.70;;;9.63;;
12814;SDS011;6472;52.328;13.070;2022-11-15T00:23:35;12.50;;;8.27;;
12814;SDS011;6472;52.328;13.070;2022-11-15T00:26:04;18.57;;;9.67;;
12814;SDS011;6472;52.328;13.070;2022-11-15T00:28:32;18.43;;;9.30;;
12814;SDS011;6472;52.328;13.070;2022-11-15T00:31:00;14.83;;;8.67;;
12814;SDS011;6472;52.328;13.070;2022-11-15T00:33:30;14.27;;;8.27;;
12814;SDS011;6472;52.328;13.070;2022-11-15T00:36:00;14.93;;;8.23;;
12814;SDS011;6472;52.328;13.070;2022-11-15T00:38:30;19.27;;;9.13;;
12814;SDS011;6472;52.328;13.070;2022-11-15T00:41:00;18.23;;;8.87;;
12814;SDS011;6472;52.328;13.070;2022-11-15T00:43:34;16.20;;;9.30;;
12814;SDS011;6472;52.328;13.070;2022-11-15T00:46:02;21.03;;;10.33;;
12814;SDS011;6472;52.328;13.070;2022-11-15T00:48:32;18.10;;;9.20;;
12814;SDS011;6472;52.328;13.070;2022-11-15T00:51:00;16.50;;;8.37;;
12814;SDS011;6472;52.328;13.070;2022-11-15T00:53:28;20.93;;;11.10;;
12814;SDS011;6472;52.328;13.070;2022-11-15T00:55:56;22.20;;;10.10;;
12814;SDS011;6472;52.328;13.070;2022-11-15T00:58:25;18.50;;;8.77;;
12814;SDS011;6472;52.328;13.070;2022-11-15T01:00:53;19.13;;;10.47;;
12814;SDS011;6472;52.328;13.070;2022-11-15T01:03:21;15.30;;;8.73;;
12814;SDS011;6472;52.328;13.070;2022-11-15T01:05:50;19.83;;;9.93;;
12814;SDS011;6472;52.328;13.070;2022-11-15T01:08:18;21.10;;;10.13;;
12814;SDS011;6472;52.328;13.070;2022-11-15T01:10:46;13.17;;;8.73;;
12814;SDS011;6472;52.328;13.070;2022-11-15T01:13:14;15.03;;;9.30;;
12814;SDS011;6472;52.328;13.070;2022-11-15T01:15:42;16.60;;;9.97;;
12814;SDS011;6472;52.328;13.070;2022-11-15T01:18:10;19.30;;;8.43;;
12814;SDS011;6472;52.328;13.070;2022-11-15T01:20:40;16.63;;;9.80;;
12814;SDS011;6472;52.328;13.070;2022-11-15T01:23:10;20.73;;;10.07;;
12814;SDS011;6472;52.328;13.070;2022-11-15T01:25:38;17.70;;;8.73;;
12814;SDS011;6472;52.328;13.070;2022-11-15T01:28:06;15.30;;;8.47;;
12814;SDS011;6472;52.328;13.070;2022-11-15T01:30:35;19.17;;;8.20;;
12814;SDS011;6472;52.328;13.070;2022-11-15T01:33:03;19.67;;;8.60;;
12814;SDS011;6472;52.328;13.070;2022-11-15T01:35:31;16.43;;;9.80;;
12814;SDS011;6472;52.328;13.070;2022-11-15T01:37:59;19.03;;;11.07;;
12814;SDS011;6472;52.328;13.070;2022-11-15T01:40:29;14.43;;;8.10;;
12814;SDS011;6472;52.328;13.070;2022-11-15T01:42:57;18.97;;;9.50;;
12814;SDS011;6472;52.328;13.070;2022-11-15T01:45:25;20.40;;;10.73;;
12814;SDS011;6472;52.328;13.070;2022-11-15T01:47:53;23.80;;;10.63;;
12814;SDS011;6472;52.328;13.070;2022-11-15T01:50:23;22.50;;;10.73;;
12814;SDS011;6472;52.328;13.070;2022-11-15T01:52:56;20.60;;;10.50;;
12814;SDS011;6472;52.328;13.070;2022-11-15T01:55:24;19.60;;;9.90;;
12814;SDS011;6472;52.328;13.070;2022-11-15T01:57:56;20.43;;;8.53;;
12814;SDS011;6472;52.328;13.070;2022-11-15T02:00:27;19.90;;;9.90;;
12814;SDS011;6472;52.328;13.070;2022-11-15T02:02:56;17.10;;;9.17;;
12814;SDS011;6472;52.328;13.070;2022-11-15T02:05:24;20.23;;;9.60;;
12814;SDS011;6472;52.328;13.070;2022-11-15T02:07:53;18.30;;;10.13;;
12814;SDS011;6472;52.328;13.070;2022-11-15T02:10:22;25.00;;;9.80;;
12814;SDS011;6472;52.328;13.070;2022-11-15T02:12:51;21.20;;;8.70;;
12814;SDS011;6472;52.328;13.070;2022-11-15T02:15:22;16.40;;;8.83;;
12814;SDS011;6472;52.328;13.070;2022-11-15T02:17:58;21.97;;;9.90;;
12814;SDS011;6472;52.328;13.070;2022-11-15T02:23:53;14.93;;;7.63;;
12814;SDS011;6472;52.328;13.070;2022-11-15T02:30:04;24.27;;;10.00;;
12814;SDS011;6472;52.328;13.070;2022-11-15T02:32:45;17.17;;;8.07;;
12814;SDS011;6472;52.328;13.070;2022-11-15T02:35:19;15.17;;;9.43;;
12814;SDS011;6472;52.328;13.070;2022-11-15T02:37:56;19.17;;;9.17;;
12814;SDS011;6472;52.328;13.070;2022-11-15T02:40:27;17.60;;;8.70;;
12814;SDS011;6472;52.328;13.070;2022-11-15T02:43:07;23.43;;;10.00;;
12814;SDS011;6472;52.328;13.070;2022-11-15T02:46:06;19.47;;;9.87;;
12814;SDS011;6472;52.328;13.070;2022-11-15T02:48:39;25.40;;;9.93;;
12814;SDS011;6472;52.328;13.070;2022-11-15T02:51:10;18.93;;;9.47;;
12814;SDS011;6472;52.328;13.070;2022-11-15T02:53:40;12.80;;;6.97;;
12814;SDS011;6472;52.328;13.070;2022-11-15T02:56:08;13.87;;;8.40;;
12814;SDS011;6472;52.328;13.070;2022-11-15T02:58:48;24.17;;;10.77;;
12814;SDS011;6472;52.328;13.070;2022-11-15T03:01:33;19.20;;;9.03;;
12814;SDS011;6472;52.328;13.070;2022-11-15T03:04:09;28.73;;;12.53;;
12814;SDS011;6472;52.328;13.070;2022-11-15T03:06:49;24.17;;;11.77;;
12814;SDS011;6472;52.328;13.070;2022-11-15T03:09:25;20.87;;;9.63;;
12814;SDS011;6472;52.328;13.070;2022-11-15T03:11:59;20.87;;;10.20;;
12814;SDS011;6472;52.328;13.070;2022-11-15T03:14:35;23.53;;;11.63;;
12814;SDS011;6472;52.328;13.070;2022-11-15T03:17:11;19.83;;;10.33;;
12814;SDS011;6472;52.328;13.070;2022-11-15T03:19:44;22.20;;;11.20;;
12814;SDS011;6472;52.328;13.070;2022-11-15T03:22:15;19.87;;;9.80;;
12814;SDS011;6472;52.328;13.070;2022-11-15T03:24:45;20.00;;;10.13;;
12814;SDS011;6472;52.328;13.070;2022-11-15T03:27:19;22.23;;;10.93;;
12814;SDS011;6472;52.328;13.070;2022-11-15T03:29:52;21.43;;;9.30;;
12814;SDS011;6472;52.328;13.070;2022-11-15T03:32:25;22.27;;;10.00;;
12814;SDS011;6472;52.328;13.070;2022-11-15T03:34:57;20.33;;;8.87;;
12814;SDS011;6472;52.328;13.070;2022-11-15T03:37:29;25.77;;;12.70;;
12814;SDS011;6472;52.328;13.070;2022-11-15T03:40:01;17.90;;;8.37;;
12814;SDS011;6472;52.328;13.070;2022-11-15T03:42:31;23.20;;;9.40;;
12814;SDS011;6472;52.328;13.070;2022-11-15T03:45:05;28.27;;;12.00;;
12814;SDS011;6472;52.328;13.070;2022-11-15T03:47:43;25.77;;;12.13;;
12814;SDS011;6472;52.328;13.070;2022-11-15T03:50:17;25.13;;;12.63;;
12814;SDS011;6472;52.328;13.070;2022-11-15T03:52:47;25.43;;;12.53;;
12814;SDS011;6472;52.328;13.070;2022-11-15T03:55:18;24.60;;;11.27;;
12814;SDS011;6472;52.328;13.070;2022-11-15T03:57:48;21.30;;;11.43;;
12814;SDS011;6472;52.328;13.070;2022-11-15T04:00:18;18.53;;;10.30;;
12814;SDS011;6472;52.328;13.070;2022-11-15T04:02:47;22.40;;;12.23;;
12814;SDS011;6472;52.328;13.070;2022-11-15T04:05:15;24.63;;;12.70;;
12814;SDS011;6472;52.328;13.070;2022-11-15T04:07:44;23.87;;;11.67;;
12814;SDS011;6472;52.328;13.070;2022-11-15T04:10:12;23.67;;;11.00;;
12814;SDS011;6472;52.328;13.070;2022-11-15T04:12:41;21.47;;;11.97;;
12814;SDS011;6472;52.328;13.070;2022-11-15T04:15:13;24.60;;;11.63;;
12814;SDS011;6472;52.328;13.070;2022-11-15T04:17:43;22.27;;;12.03;;
12814;SDS011;6472;52.328;13.070;2022-11-15T04:20:14;22.73;;;12.27;;
12814;SDS011;6472;52.328;13.070;2022-11-15T04:23:02;17.00;;;8.50;;
12814;SDS011;6472;52.328;13.070;2022-11-15T04:25:50;27.93;;;11.63;;
12814;SDS011;6472;52.328;13.070;2022-11-15T04:28:20;21.50;;;10.23;;
12814;SDS011;6472;52.328;13.070;2022-11-15T04:30:48;25.47;;;11.47;;
12814;SDS011;6472;52.328;13.070;2022-11-15T04:33:16;24.33;;;11.90;;
12814;SDS011;6472;52.328;13.070;2022-11-15T04:35:45;23.90;;;11.60;;
12814;SDS011;6472;52.328;13.070;2022-11-15T04:38:34;22.60;;;11.07;;
12814;SDS011;6472;52.328;13.070;2022-11-15T04:41:01;24.63;;;10.93;;
12814;SDS011;6472;52.328;13.070;2022-11-15T04:43:29;24.43;;;10.00;;
12814;SDS011;6472;52.328;13.070;2022-11-15T04:45:58;19.97;;;9.57;;
12814;SDS011;6472;52.328;13.070;2022-11-15T04:48:26;18.20;;;9.43;;
12814;SDS011;6472;52.328;13.070;2022-11-15T04:50:55;20.77;;;11.07;;
12814;SDS011;6472;52.328;13.070;2022-11-15T04:53:23;21.17;;;9.83;;
12814;SDS011;6472;52.328;13.070;2022-11-15T04:55:51;25.23;;;10.93;;
12814;SDS011;6472;52.328;13.070;2022-11-15T04:58:20;20.23;;;10.30;;
12814;SDS011;6472;52.328;13.070;2022-11-15T05:00:48;20.43;;;10.27;;
12814;SDS011;6472;52.328;13.070;2022-11-15T05:03:16;26.60;;;10.23;;
12814;SDS011;6472;52.328;13.070;2022-11-15T05:06:03;21.57;;;11.00;;
12814;SDS011;6472;52.328;13.070;2022-11-15T05:08:32;25.47;;;11.00;;
12814;SDS011;6472;52.328;13.070;2022-11-15T05:11:00;17.10;;;7.67;;
12814;SDS011;6472;52.328;13.070;2022-11-15T05:13:28;24.87;;;10.70;;
12814;SDS011;6472;52.328;13.070;2022-11-15T05:15:57;17.97;;;9.83;;
12814;SDS011;6472;52.328;13.070;2022-11-15T05:18:25;20.77;;;9.40;;
12814;SDS011;6472;52.328;13.070;2022-11-15T05:20:53;22.97;;;11.53;;
12814;SDS011;6472;52.328;13.070;2022-11-15T05:23:23;19.63;;;9.93;;
12814;SDS011;6472;52.328;13.070;2022-11-15T05:25:51;15.30;;;9.33;;
12814;SDS011;6472;52.328;13.070;2022-11-15T05:28:19;18.73;;;8.50;;
12814;SDS011;6472;52.328;13.070;2022-11-15T05:30:47;20.40;;;9.50;;
12814;SDS011;6472;52.328;13.070;2022-11-15T05:33:15;17.60;;;9.43;;
12814;SDS011;6472;52.328;13.070;2022-11-15T05:35:45;15.67;;;10.30;;
12814;SDS011;6472;52.328;13.070;2022-11-15T05:38:18;17.30;;;8.47;;
12814;SDS011;6472;52.328;13.070;2022-11-15T05:40:47;18.47;;;8.07;;
12814;SDS011;6472;52.328;13.070;2022-11-15T05:43:15;18.63;;;8.43;;
12814;SDS011;6472;52.328;13.070;2022-11-15T05:45:44;17.97;;;8.43;;
12814;SDS011;6472;52.328;13.070;2022-11-15T05:48:12;14.80;;;7.33;;
12814;SDS011;6472;52.328;13.070;2022-11-15T05:50:41;15.60;;;7.83;;
12814;SDS011;6472;52.328;13.070;2022-11-15T05:53:11;18.43;;;9.37;;
12814;SDS011;6472;52.328;13.070;2022-11-15T05:55:42;18.83;;;8.03;;
12814;SDS011;6472;52.328;13.070;2022-11-15T05:58:11;18.67;;;8.50;;
12814;SDS011;6472;52.328;13.070;2022-11-15T06:00:39;29.00;;;11.67;;
12814;SDS011;6472;52.328;13.070;2022-11-15T06:03:09;21.10;;;9.33;;
12814;SDS011;6472;52.328;13.070;2022-11-15T06:05:37;18.03;;;9.53;;
12814;SDS011;6472;52.328;13.070;2022-11-15T06:08:05;18.07;;;8.23;;
12814;SDS011;6472;52.328;13.070;2022-11-15T06:10:33;20.40;;;10.23;;
12814;SDS011;6472;52.328;13.070;2022-11-15T06:13:02;18.73;;;9.57;;
12814;SDS011;6472;52.328;13.070;2022-11-15T06:15:33;26.97;;;10.93;;
12814;SDS011;6472;52.328;13.070;2022-11-15T06:18:01;18.13;;;8.53;;
12814;SDS011;6472;52.328;13.070;2022-11-15T06:20:30;17.77;;;10.67;;
12814;SDS011;6472;52.328;13.070;2022-11-15T06:22:58;16.00;;;9.20;;
12814;SDS011;6472;52.328;13.070;2022-11-15T06:25:28;15.40;;;7.67;;
12814;SDS011;6472;52.328;13.070;2022-11-15T06:27:58;22.13;;;10.77;;
12814;SDS011;6472;52.328;13.070;2022-11-15T06:30:26;25.03;;;10.10;;
12814;SDS011;6472;52.328;13.070;2022-11-15T06:33:02;25.73;;;11.33;;
12814;SDS011;6472;52.328;13.070;2022-11-15T06:35:33;20.60;;;10.50;;
12814;SDS011;6472;52.328;13.070;2022-11-15T06:38:02;19.57;;;9.43;;
12814;SDS011;6472;52.328;13.070;2022-11-15T06:40:32;18.87;;;10.57;;
12814;SDS011;6472;52.328;13.070;2022-11-15T06:43:01;21.37;;;9.40;;
12814;SDS011;6472;52.328;13.070;2022-11-15T06:45:29;20.63;;;9.87;;
12814;SDS011;6472;52.328;13.070;2022-11-15T06:47:58;22.73;;;10.30;;
12814;SDS011;6472;52.328;13.070;2022-11-15T06:50:28;21.70;;;10.50;;
12814;SDS011;6472;52.328;13.070;2022-11-15T06:53:00;18.63;;;9.27;;
12814;SDS011;6472;52.328;13.070;2022-11-15T06:55:29;23.10;;;10.67;;
12814;SDS011;6472;52.328;13.070;2022-11-15T06:57:57;23.63;;;10.27;;
12814;SDS011;6472;52.328;13.070;2022-11-15T07:00:25;20.63;;;10.50;;
12814;SDS011;6472;52.328;13.070;2022-11-15T07:02:53;16.90;;;7.23;;
12814;SDS011;6472;52.328;13.070;2022-11-15T07:05:21;23.20;;;10.10;;
12814;SDS011;6472;52.328;13.070;2022-11-15T07:07:53;22.47;;;10.37;;
12814;SDS011;6472;52.328;13.070;2022-11-15T07:10:23;16.43;;;8.97;;
12814;SDS011;6472;52.328;13.070;2022-11-15T07:12:52;14.10;;;8.17;;
12814;SDS011;6472;52.328;13.070;2022-11-15T07:15:22;13.43;;;8.53;;
12814;SDS011;6472;52.328;13.070;2022-11-15T07:17:51;14.70;;;8.43;;
12814;SDS011;6472;52.328;13.070;2022-11-15T07:20:19;20.57;;;10.13;;
12814;SDS011;6472;52.328;13.070;2022-11-15T07:22:47;27.67;;;12.17;;
12814;SDS011;6472;52.328;13.070;2022-11-15T07:25:16;19.57;;;8.93;;
12814;SDS011;6472;52.328;13.070;2022-11-15T07:27:53;18.67;;;9.90;;
12814;SDS011;6472;52.328;13.070;2022-11-15T07:30:22;18.93;;;8.13;;
12814;SDS011;6472;52.328;13.070;2022-11-15T07:32:52;17.97;;;9.03;;
12814;SDS011;6472;52.328;13.070;2022-11-15T07:35:21;15.93;;;8.50;;
12814;SDS011;6472;52.328;13.070;2022-11-15T07:37:52;20.87;;;10.63;;
12814;SDS011;6472;52.328;13.070;2022-11-15T07:40:23;17.87;;;9.70;;
12814;SDS011;6472;52.328;13.070;2022-11-15T07:42:52;16.53;;;8.33;;
12814;SDS011;6472;52.328;13.070;2022-11-15T07:45:20;19.57;;;9.73;;
12814;SDS011;6472;52.328;13.070;2022-11-15T07:47:48;13.83;;;8.33;;
12814;SDS011;6472;52.328;13.070;2022-11-15T07:50:17;18.17;;;8.67;;
12814;SDS011;6472;52.328;13.070;2022-11-15T07:52:45;21.80;;;9.10;;
12814;SDS011;6472;52.328;13.070;2022-11-15T07:55:13;20.47;;;10.93;;
12814;SDS011;6472;52.328;13.070;2022-11-15T07:57:43;20.40;;;9.37;;
12814;SDS011;6472;52.328;13.070;2022-11-15T08:00:11;19.07;;;9.37;;
12814;SDS011;6472;52.328;13.070;2022-11-15T08:02:41;16.30;;;7.73;;
12814;SDS011;6472;52.328;13.070;2022-11-15T08:05:09;21.93;;;9.27;;
12814;SDS011;6472;52.328;13.070;2022-11-15T08:07:37;18.07;;;9.43;;
12814;SDS011;6472;52.328;13.070;2022-11-15T08:10:06;17.90;;;8.43;;
12814;SDS011;6472;52.328;13.070;2022-11-15T08:12:35;20.47;;;9.17;;
12814;SDS011;6472;52.328;13.070;2022-11-15T08:15:05;18.13;;;9.13;;
12814;SDS011;6472;52.328;13.070;2022-11-15T08:17:34;18.47;;;9.27;;
12814;SDS011;6472;52.328;13.070;2022-11-15T08:20:02;19.87;;;8.43;;
12814;SDS011;6472;52.328;13.070;2022-11-15T08:22:31;21.00;;;11.30;;
12814;SDS011;6472;52.328;13.070;2022-11-15T08:25:00;23.37;;;11.20;;
12814;SDS011;6472;52.328;13.070;2022-11-15T08:27:28;22.67;;;10.17;;
12814;SDS011;6472;52.328;13.070;2022-11-15T08:29:56;21.60;;;10.67;;
12814;SDS011;6472;52.328;13.070;2022-11-15T08:32:26;27.17;;;12.70;;
12814;SDS011;6472;52.328;13.070;2022-11-15T08:34:54;24.33;;;10.67;;
12814;SDS011;6472;52.328;13.070;2022-11-15T08:37:22;25.07;;;11.70;;
12814;SDS011;6472;52.328;13.070;2022-11-15T08:39:50;21.80;;;11.40;;
12814;SDS011;6472;52.328;13.070;2022-11-15T08:42:18;23.33;;;9.93;;
12814;SDS011;6472;52.328;13.070;2022-11-15T08:44:46;25.73;;;11.83;;
12814;SDS011;6472;52.328;13.070;2022-11-15T08:47:15;17.53;;;10.57;;
12814;SDS011;6472;52.328;13.070;2022-11-15T08:49:44;18.70;;;10.40;;
12814;SDS011;6472;52.328;13.070;2022-11-15T08:52:13;26.37;;;11.53;;
12814;SDS011;6472;52.328;13.070;2022-11-15T08:54:41;24.90;;;11.77;;
12814;SDS011;6472;52.328;13.070;2022-11-15T08:57:09;27.30;;;12.47;;
12814;SDS011;6472;52.328;13.070;2022-11-15T08:59:37;21.90;;;12.50;;
12814;SDS011;6472;52.328;13.070;2022-11-15T09:02:05;23.93;;;10.87;;
12814;SDS011;6472;52.328;13.070;2022-11-15T09:04:33;28.17;;;11.40;;
12814;SDS011;6472;52.328;13.070;2022-11-15T09:07:03;23.10;;;11.50;;
12814;SDS011;6472;52.328;13.070;2022-11-15T09:09:31;21.80;;;12.00;;
12814;SDS011;6472;52.328;13.070;2022-11-15T09:11:59;24.17;;;11.97;;
12814;SDS011;6472;52.328;13.070;2022-11-15T09:14:28;22.63;;;11.50;;
12814;SDS011;6472;52.328;13.070;2022-11-15T09:16:56;21.57;;;10.13;;
12814;SDS011;6472;52.328;13.070;2022-11-15T09:19:24;23.03;;;11.93;;
12814;SDS011;6472;52.328;13.070;2022-11-15T09:21:52;19.07;;;10.17;;
12814;SDS011;6472;52.328;13.070;2022-11-15T09:24:22;22.93;;;11.53;;
12814;SDS011;6472;52.328;13.070;2022-11-15T09:26:50;19.53;;;10.27;;
12814;SDS011;6472;52.328;13.070;2022-11-15T09:29:18;20.13;;;11.83;;
12814;SDS011;6472;52.328;13.070;2022-11-15T09:31:46;21.30;;;11.03;;
12814;SDS011;6472;52.328;13.070;2022-11-15T09:34:15;19.73;;;10.70;;
12814;SDS011;6472;52.328;13.070;2022-11-15T09:36:43;23.47;;;10.50;;
12814;SDS011;6472;52.328;13.070;2022-11-15T09:39:11;24.37;;;11.07;;
12814;SDS011;6472;52.328;13.070;2022-11-15T09:41:52;21.23;;;11.40;;
12814;SDS011;6472;52.328;13.070;2022-11-15T09:44:47;23.27;;;11.43;;
12814;SDS011;6472;52.328;13.070;2022-11-15T09:47:38;18.53;;;9.90;;
12814;SDS011;6472;52.328;13.070;2022-11-15T09:50:16;18.43;;;10.17;;
12814;SDS011;6472;52.328;13.070;2022-11-15T09:52:49;24.10;;;10.77;;
12814;SDS011;6472;52.328;13.070;2022-11-15T09:55:17;16.57;;;10.27;;
12814;SDS011;6472;52.328;13.070;2022-11-15T09:57:50;18.30;;;10.17;;
12814;SDS011;6472;52.328;13.070;2022-11-15T10:00:24;22.57;;;9.87;;
12814;SDS011;6472;52.328;13.070;2022-11-15T10:03:16;22.20;;;11.53;;
12814;SDS011;6472;52.328;13.070;2022-11-15T10:05:51;18.83;;;9.17;;
12814;SDS011;6472;52.328;13.070;2022-11-15T10:08:33;19.83;;;9.30;;
12814;SDS011;6472;52.328;13.070;2022-11-15T10:11:17;22.93;;;10.13;;
12814;SDS011;6472;52.328;13.070;2022-11-15T10:14:04;19.57;;;9.27;;
12814;SDS011;6472;52.328;13.070;2022-11-15T10:16:59;17.33;;;9.10;;
12814;SDS011;6472;52.328;13.070;2022-11-15T10:19:50;20.17;;;9.13;;
12814;SDS011;6472;52.328;13.070;2022-11-15T10:22:32;16.33;;;9.03;;
12814;SDS011;6472;52.328;13.070;2022-11-15T10:25:14;15.70;;;9.27;;
12814;SDS011;6472;52.328;13.070;2022-11-15T10:27:51;14.40;;;9.07;;
12814;SDS011;6472;52.328;13.070;2022-11-15T10:30:23;18.47;;;9.07;;
12814;SDS011;6472;52.328;13.070;2022-11-15T10:33:10;14.83;;;8.23;;
12814;SDS011;6472;52.328;13.070;2022-11-15T10:35:44;16.50;;;8.93;;
12814;SDS011;6472;52.328;13.070;2022-11-15T10:38:12;19.63;;;9.27;;
12814;SDS011;6472;52.328;13.070;2022-11-15T10:40:41;15.00;;;8.57;;
12814;SDS011;6472;52.328;13.070;2022-11-15T10:43:15;14.10;;;7.27;;
12814;SDS011;6472;52.328;13.070;2022-11-15T10:45:46;17.47;;;8.10;;
12814;SDS011;6472;52.328;13.070;2022-11-15T10:48:20;15.33;;;7.83;;
12814;SDS011;6472;52.328;13.070;2022-11-15T10:50:50;14.43;;;8.03;;
12814;SDS011;6472;52.328;13.070;2022-11-15T10:53:25;12.20;;;7.07;;
12814;SDS011;6472;52.328;13.070;2022-11-15T10:56:00;10.00;;;6.23;;
12814;SDS011;6472;52.328;13.070;2022-11-15T10:58:32;11.47;;;7.03;;
12814;SDS011;6472;52.328;13.070;2022-11-15T11:01:14;12.07;;;7.20;;
12814;SDS011;6472;52.328;13.070;2022-11-15T11:03:44;11.63;;;7.07;;
12814;SDS011;6472;52.328;13.070;2022-11-15T11:06:25;11.43;;;6.83;;
12814;SDS011;6472;52.328;13.070;2022-11-15T11:08:57;11.70;;;7.40;;
12814;SDS011;6472;52.328;13.070;2022-11-15T11:11:43;11.77;;;7.20;;
12814;SDS011;6472;52.328;13.070;2022-11-15T11:14:12;9.43;;;5.80;;
12814;SDS011;6472;52.328;13.070;2022-11-15T11:16:49;9.87;;;6.97;;
12814;SDS011;6472;52.328;13.070;2022-11-15T11:22:19;11.57;;;6.77;;
12814;SDS011;6472;52.328;13.070;2022-11-15T11:24:58;10.60;;;6.13;;
12814;SDS011;6472;52.328;13.070;2022-11-15T11:27:41;8.50;;;5.80;;
12814;SDS011;6472;52.328;13.070;2022-11-15T11:30:17;8.63;;;5.40;;
12814;SDS011;6472;52.328;13.070;2022-11-15T11:33:07;10.50;;;5.83;;
12814;SDS011;6472;52.328;13.070;2022-11-15T11:35:45;9.37;;;6.43;;
12814;SDS011;6472;52.328;13.070;2022-11-15T11:38:30;9.40;;;6.03;;
12814;SDS011;6472;52.328;13.070;2022-11-15T11:41:08;9.57;;;6.37;;
12814;SDS011;6472;52.328;13.070;2022-11-15T11:43:47;9.20;;;5.67;;
12814;SDS011;6472;52.328;13.070;2022-11-15T11:49:18;8.30;;;5.20;;
12814;SDS011;6472;52.328;13.070;2022-11-15T11:51:50;9.80;;;6.20;;
12814;SDS011;6472;52.328;13.070;2022-11-15T11:54:22;6.80;;;4.73;;
12814;SDS011;6472;52.328;13.070;2022-11-15T11:57:00;8.07;;;5.27;;
12814;SDS011;6472;52.328;13.070;2022-11-15T11:59:33;10.10;;;5.63;;
12814;SDS011;6472;52.328;13.070;2022-11-15T12:02:10;5.93;;;4.60;;
12814;SDS011;6472;52.328;13.070;2022-11-15T12:04:45;6.50;;;5.03;;
12814;SDS011;6472;52.328;13.070;2022-11-15T12:07:18;8.87;;;5.53;;
12814;SDS011;6472;52.328;13.070;2022-11-15T12:09:51;12.97;;;5.13;;
12814;SDS011;6472;52.328;13.070;2022-11-15T12:12:27;7.50;;;5.10;;
12814;SDS011;6472;52.328;13.070;2022-11-15T12:15:02;6.50;;;4.17;;
12814;SDS011;6472;52.328;13.070;2022-11-15T12:17:38;7.47;;;4.80;;
12814;SDS011;6472;52.328;13.070;2022-11-15T12:20:15;6.03;;;3.77;;
12814;SDS011;6472;52.328;13.070;2022-11-15T12:22:47;6.70;;;4.17;;
12814;SDS011;6472;52.328;13.070;2022-11-15T12:25:21;5.73;;;4.27;;
12814;SDS011;6472;52.328;13.070;2022-11-15T12:27:56;7.73;;;4.60;;
12814;SDS011;6472;52.328;13.070;2022-11-15T12:30:31;8.47;;;4.80;;
12814;SDS011;6472;52.328;13.070;2022-11-15T12:36:03;5.73;;;3.47;;
12814;SDS011;6472;52.328;13.070;2022-11-15T12:41:23;8.63;;;4.33;;
12814;SDS011;6472;52.328;13.070;2022-11-15T12:43:53;8.27;;;4.30;;
12814;SDS011;6472;52.328;13.070;2022-11-15T12:46:24;5.60;;;3.93;;
12814;SDS011;6472;52.328;13.070;2022-11-15T12:49:44;5.37;;;3.77;;
12814;SDS011;6472;52.328;13.070;2022-11-15T12:52:15;5.30;;;3.67;;
12814;SDS011;6472;52.328;13.070;2022-11-15T12:54:57;5.23;;;4.03;;
12814;SDS011;6472;52.328;13.070;2022-11-15T12:57:37;5.43;;;3.43;;
12814;SDS011;6472;52.328;13.070;2022-11-15T13:03:24;6.70;;;3.73;;
12814;SDS011;6472;52.328;13.070;2022-11-15T13:06:04;6.10;;;4.20;;
12814;SDS011;6472;52.328;13.070;2022-11-15T13:08:39;5.37;;;3.50;;
12814;SDS011;6472;52.328;13.070;2022-11-15T13:14:41;6.63;;;3.43;;
12814;SDS011;6472;52.328;13.070;2022-11-15T13:17:21;7.20;;;3.87;;
12814;SDS011;6472;52.328;13.070;2022-11-15T13:20:08;7.10;;;3.50;;
12814;SDS011;6472;52.328;13.070;2022-11-15T13:22:50;5.47;;;3.73;;
12814;SDS011;6472;52.328;13.070;2022-11-15T13:28:24;5.67;;;3.90;;
12814;SDS011;6472;52.328;13.070;2022-11-15T13:30:58;4.70;;;3.53;;
12814;SDS011;6472;52.328;13.070;2022-11-15T13:33:30;4.00;;;3.60;;
12814;SDS011;6472;52.328;13.070;2022-11-15T13:36:02;6.00;;;3.97;;
12814;SDS011;6472;52.328;13.070;2022-11-15T13:38:33;12.23;;;3.93;;
12814;SDS011;6472;52.328;13.070;2022-11-15T13:41:13;7.33;;;4.07;;
12814;SDS011;6472;52.328;13.070;2022-11-15T13:43:46;4.37;;;3.20;;
12814;SDS011;6472;52.328;13.070;2022-11-15T13:46:16;4.07;;;3.00;;
12814;SDS011;6472;52.328;13.070;2022-11-15T13:48:46;4.57;;;3.73;;
12814;SDS011;6472;52.328;13.070;2022-11-15T13:51:27;5.20;;;3.40;;
12814;SDS011;6472;52.328;13.070;2022-11-15T13:54:06;5.33;;;3.90;;
12814;SDS011;6472;52.328;13.070;2022-11-15T13:56:44;7.33;;;4.10;;
12814;SDS011;6472;52.328;13.070;2022-11-15T13:59:17;5.27;;;3.93;;
12814;SDS011;6472;52.328;13.070;2022-11-15T14:01:51;7.07;;;4.57;;
12814;SDS011;6472;52.328;13.070;2022-11-15T14:04:20;4.53;;;3.27;;
12814;SDS011;6472;52.328;13.070;2022-11-15T14:06:52;6.10;;;3.93;;
12814;SDS011;6472;52.328;13.070;2022-11-15T14:09:32;4.50;;;3.80;;
12814;SDS011;6472;52.328;13.070;2022-11-15T14:14:51;8.03;;;3.93;;
12814;SDS011;6472;52.328;13.070;2022-11-15T14:17:20;6.27;;;4.17;;
12814;SDS011;6472;52.328;13.070;2022-11-15T14:19:49;4.63;;;3.40;;
12814;SDS011;6472;52.328;13.070;2022-11-15T14:22:20;5.00;;;3.73;;
12814;SDS011;6472;52.328;13.070;2022-11-15T14:25:04;3.27;;;2.83;;
12814;SDS011;6472;52.328;13.070;2022-11-15T14:27:41;5.13;;;3.17;;
12814;SDS011;6472;52.328;13.070;2022-11-15T14:30:14;4.97;;;3.70;;
12814;SDS011;6472;52.328;13.070;2022-11-15T14:32:44;13.10;;;4.83;;
12814;SDS011;6472;52.328;13.070;2022-11-15T14:35:16;5.77;;;3.77;;
12814;SDS011;6472;52.328;13.070;2022-11-15T14:37:46;5.90;;;3.87;;
12814;SDS011;6472;52.328;13.070;2022-11-15T14:40:15;8.50;;;3.43;;
12814;SDS011;6472;52.328;13.070;2022-11-15T14:42:48;4.63;;;3.40;;
12814;SDS011;6472;52.328;13.070;2022-11-15T14:45:17;5.30;;;2.93;;
12814;SDS011;6472;52.328;13.070;2022-11-15T14:47:47;3.37;;;3.07;;
12814;SDS011;6472;52.328;13.070;2022-11-15T14:50:16;7.73;;;3.43;;
12814;SDS011;6472;52.328;13.070;2022-11-15T14:52:45;6.37;;;3.90;;
12814;SDS011;6472;52.328;13.070;2022-11-15T14:55:16;3.87;;;2.97;;
12814;SDS011;6472;52.328;13.070;2022-11-15T14:57:48;5.03;;;3.27;;
12814;SDS011;6472;52.328;13.070;2022-11-15T15:00:17;4.20;;;3.40;;
12814;SDS011;6472;52.328;13.070;2022-11-15T15:02:46;6.57;;;4.70;;
12814;SDS011;6472;52.328;13.070;2022-11-15T15:05:16;5.03;;;3.60;;
12814;SDS011;6472;52.328;13.070;2022-11-15T15:07:45;3.47;;;3.17;;
12814;SDS011;6472;52.328;13.070;2022-11-15T15:10:15;4.70;;;3.73;;
12814;SDS011;6472;52.328;13.070;2022-11-15T15:13:05;6.30;;;3.70;;
12814;SDS011;6472;52.328;13.070;2022-11-15T15:15:37;6.63;;;3.17;;
12814;SDS011;6472;52.328;13.070;2022-11-15T15:18:05;5.27;;;3.50;;
12814;SDS011;6472;52.328;13.070;2022-11-15T15:20:34;4.77;;;3.00;;
12814;SDS011;6472;52.328;13.070;2022-11-15T15:23:04;4.63;;;3.03;;
12814;SDS011;6472;52.328;13.070;2022-11-15T15:25:33;5.33;;;2.90;;
12814;SDS011;6472;52.328;13.070;2022-11-15T15:28:02;4.43;;;2.97;;
12814;SDS011;6472;52.328;13.070;2022-11-15T15:30:31;5.30;;;3.57;;
12814;SDS011;6472;52.328;13.070;2022-11-15T15:32:59;5.80;;;3.43;;